Stryker, Ohio
Current Conditions -  °F | °C
As of 10:53 AM on Thursday 23 Oct 2014 (Local Time) from KDFI Reporting Station
Haze Haze  
Wind Chill: 46°   Ceiling: Unl
Heat Index: 46°   Visibility: 6mi
Dew Point: 42°   Wind: 0mph
Humidity: 86%   Direction: NA
Pressure: 30.27"   Gusts: NA
Location:  41.5°N, 84.41°W
Report Text: KDFI 231453Z AUTO 00000KT 6SM BR FEW004 08/06 A3027 RMK AO2 SLP254 I3000 T00780056 51002
Loading
Personal Weather Stations






























Interactive Weather Map
Tropical Storm Tracking
New forecast layout! Learn more

10-Day Weather Forecast

Advertisements
Track Severe Weather on mobile